Main page
METAR-TAF:

METAR-TAF

Airports :

Lusaka, Zambia

Kenneth Kaunda International Airport

latitude: 15-19-51S, longitude: 028-27-09E, elevation: 1152 m

Current weather observation

The report was made 2 hours and 15 minutes ago, at 07:00 UTC
Wind 7 kt from the East
Temperature 25°C
Humidity 36%
Pressure 1023 hPa
Visibility 10 km or more
no clouds below 1500 m and no cumulonimbus

METAR: FLKK 230700Z 09007KT CAVOK 25/09 Q1023

Time: 11:15 (09:15 UTC)

Forecast

The report was made 23 hours and 15 minutes ago, at 10:00 UTC
Forecast valid from 22 at 12 UTC to 23 at 18 UTC
Wind 10 kt from the East
Visibility 10 km or more
no clouds below 1500 m and no cumulonimbus

TAF: FLKK 221000Z 2212/2318 09010KT CAVOK

Weather observations and forecasts of more than 4000 airports (METAR and TAF reports).

The available stations are represented by yellow and red dots on the map.

Hover mouse over dot to see the name of the station.

Then click to see weather observations and forecasts.

To change the map : click on the green buttons with a black cross to zoom in, on the green button with a dash to zoom out, or on the green arrows for adjacent maps.


METAR-TAF: